Terminal Aerodrome Forecast
Issued by NWS Sterling, VA

Current Version | Previous Version | Graphics & Text | Print | Product List | Glossary On
Versions: 1 2 3 4 5 6 7 8 9 10 11 12 13 14 15 16 17 18 19 20 21
275
FTUS41 KLWX 220529
TAFIAD
TAF
KIAD 220529Z 2206/2312 18004KT P6SM OVC150
     FM221100 19006KT P6SM BKN050
     FM230300 19005KT P6SM SCT025
     FM230600 19004KT 3SM BR BKN020=

USA.gov is the U.S. government's official web portal to all federal, state and local government web resources and services.